Time;durP1;ratioP1;P1;durP2;ratioP2;P2;SDS_P1;SDS_P2;PMS_P1;PMS_P2;Temp;Humidity;BMP_temperature;BMP_pressure;BME280_temperature;BME280_humidity;BME280_pressure;Samples;Min_cycle;Max_cycle;Signal;HPM_P1;HPM_P2
2023/09/07 00:00:37;;;;;;;5.30;3.20;;;;;;;;;;5012019;28;20041;-65
2023/09/07 00:03:04;;;;;;;4.22;3.03;;;;;;;;;;5012385;28;20360;-65
2023/09/07 00:05:30;;;;;;;4.15;2.72;;;;;;;;;;4988038;28;20046;-65
2023/09/07 00:07:56;;;;;;;3.78;2.78;;;;;;;;;;4987903;28;20100;-65
2023/09/07 00:10:22;;;;;;;3.80;2.83;;;;;;;;;;5012359;28;20518;-65
2023/09/07 00:12:48;;;;;;;3.17;2.53;;;;;;;;;;5012317;28;20041;-65
2023/09/07 00:15:14;;;;;;;7.28;3.03;;;;;;;;;;5010789;28;20042;-65
2023/09/07 00:17:40;;;;;;;4.95;2.78;;;;;;;;;;5005667;28;20381;-65
2023/09/07 00:20:10;;;;;;;4.28;2.80;;;;;;;;;;4987985;28;20034;-65
2023/09/07 00:22:36;;;;;;;4.78;2.92;;;;;;;;;;4994914;28;20050;-65
2023/09/07 00:25:03;;;;;;;3.78;2.80;;;;;;;;;;5004778;28;20037;-65
2023/09/07 00:27:29;;;;;;;4.00;3.13;;;;;;;;;;5005678;28;20121;-66
2023/09/07 00:29:55;;;;;;;5.20;2.92;;;;;;;;;;4992305;28;20034;-66
2023/09/07 00:32:21;;;;;;;6.15;2.90;;;;;;;;;;5007216;28;20547;-66
2023/09/07 00:34:47;;;;;;;4.90;3.13;;;;;;;;;;5011417;28;20045;-66
2023/09/07 00:37:13;;;;;;;5.28;3.00;;;;;;;;;;5003392;28;20042;-66
2023/09/07 00:39:39;;;;;;;4.32;2.83;;;;;;;;;;4991057;28;20423;-66
2023/09/07 00:42:05;;;;;;;6.25;3.80;;;;;;;;;;5004473;28;20036;-66
2023/09/07 00:44:31;;;;;;;4.25;2.78;;;;;;;;;;5005357;28;20451;-66
2023/09/07 00:46:57;;;;;;;5.55;3.30;;;;;;;;;;5002951;28;20089;-66
2023/09/07 00:49:24;;;;;;;7.75;3.20;;;;;;;;;;4994286;28;20042;-66
2023/09/07 00:51:51;;;;;;;14.60;3.58;;;;;;;;;;5003845;28;20458;-66
2023/09/07 00:54:17;;;;;;;5.25;2.92;;;;;;;;;;5015268;28;20042;-66
2023/09/07 00:56:43;;;;;;;5.13;2.85;;;;;;;;;;5014070;28;20526;-66
2023/09/07 00:59:10;;;;;;;3.97;3.05;;;;;;;;;;5001366;28;20054;-66
2023/09/07 01:01:36;;;;;;;4.50;3.63;;;;;;;;;;4996100;28;20245;-66
2023/09/07 01:04:03;;;;;;;4.20;3.15;;;;;;;;;;5014813;28;20034;-66
2023/09/07 01:06:29;;;;;;;5.28;3.17;;;;;;;;;;5014891;28;20531;-66
2023/09/07 01:08:59;;;;;;;8.80;3.45;;;;;;;;;;5003306;28;20129;-66
2023/09/07 01:11:25;;;;;;;7.50;3.03;;;;;;;;;;4995841;28;20046;-66
2023/09/07 01:13:53;;;;;;;3.90;3.38;;;;;;;;;;5012537;28;20344;-66
2023/09/07 01:16:20;;;;;;;4.85;3.65;;;;;;;;;;5014620;28;20057;-66
2023/09/07 01:18:47;;;;;;;4.05;2.90;;;;;;;;;;5004265;28;20112;-66
2023/09/07 01:21:13;;;;;;;5.72;2.95;;;;;;;;;;4994990;28;20042;-66
2023/09/07 01:23:43;;;;;;;4.68;3.33;;;;;;;;;;5012137;28;20056;-66
2023/09/07 01:26:11;;;;;;;6.50;3.20;;;;;;;;;;5014590;28;20065;-66
2023/09/07 01:28:37;;;;;;;4.32;3.45;;;;;;;;;;4996278;28;20653;-66
2023/09/07 01:31:03;;;;;;;3.70;3.28;;;;;;;;;;4998562;28;20092;-66
2023/09/07 01:33:29;;;;;;;4.97;3.25;;;;;;;;;;5014716;28;20415;-66
2023/09/07 01:35:55;;;;;;;3.78;3.33;;;;;;;;;;5014646;28;20095;-66
2023/09/07 01:38:21;;;;;;;3.38;3.00;;;;;;;;;;4995257;28;20093;-66
2023/09/07 01:40:47;;;;;;;4.57;3.45;;;;;;;;;;5012649;28;20038;-66
2023/09/07 01:43:14;;;;;;;4.35;3.42;;;;;;;;;;5000931;28;20388;-66
2023/09/07 01:45:40;;;;;;;4.20;3.25;;;;;;;;;;4992138;28;20037;-66
2023/09/07 01:48:10;;;;;;;5.47;3.47;;;;;;;;;;4991878;28;20038;-66
2023/09/07 01:50:36;;;;;;;5.60;3.20;;;;;;;;;;4992450;28;20045;-66
2023/09/07 01:53:04;;;;;;;5.18;3.33;;;;;;;;;;4994971;28;20042;-65
2023/09/07 01:55:30;;;;;;;5.97;3.63;;;;;;;;;;5000692;28;20081;-65
2023/09/07 01:57:56;;;;;;;5.80;3.67;;;;;;;;;;4994076;28;20070;-65
2023/09/07 02:00:22;;;;;;;4.85;3.63;;;;;;;;;;5004791;28;20118;-65
2023/09/07 02:02:48;;;;;;;5.32;3.50;;;;;;;;;;4992149;28;20492;-65
2023/09/07 02:05:14;;;;;;;5.00;3.22;;;;;;;;;;5006425;28;20069;-65
2023/09/07 02:07:40;;;;;;;5.28;3.63;;;;;;;;;;5012684;28;20431;-65
2023/09/07 02:10:06;;;;;;;5.40;3.78;;;;;;;;;;5013868;28;20072;-65
2023/09/07 02:12:32;;;;;;;4.95;3.72;;;;;;;;;;5013024;28;20042;-65
2023/09/07 02:15:00;;;;;;;4.32;3.92;;;;;;;;;;5013906;28;20117;-65
2023/09/07 02:17:26;;;;;;;6.82;3.90;;;;;;;;;;5013861;28;20046;-65
2023/09/07 02:19:52;;;;;;;5.10;3.80;;;;;;;;;;5013337;28;20060;-65
2023/09/07 02:22:18;;;;;;;4.88;4.05;;;;;;;;;;5005697;28;20476;-65
2023/09/07 02:24:44;;;;;;;5.18;3.95;;;;;;;;;;5013590;28;20041;-65
2023/09/07 02:27:10;;;;;;;5.10;3.58;;;;;;;;;;5013228;28;20041;-65
2023/09/07 02:29:36;;;;;;;4.15;3.60;;;;;;;;;;5013445;28;20377;-65
2023/09/07 02:32:03;;;;;;;7.07;4.50;;;;;;;;;;5013679;28;20096;-65
2023/09/07 02:34:29;;;;;;;6.63;4.20;;;;;;;;;;5013596;28;20172;-65
2023/09/07 02:36:56;;;;;;;6.88;3.83;;;;;;;;;;5012586;28;20519;-65
2023/09/07 02:39:26;;;;;;;6.10;4.25;;;;;;;;;;5013126;28;20049;-65
2023/09/07 02:41:52;;;;;;;6.72;4.50;;;;;;;;;;5013335;28;20475;-65
2023/09/07 02:44:18;;;;;;;5.72;4.22;;;;;;;;;;5003862;28;20097;-65
2023/09/07 02:46:44;;;;;;;5.50;4.25;;;;;;;;;;5008355;28;20539;-65
2023/09/07 02:49:09;;;;;;;5.95;4.38;;;;;;;;;;5013110;28;20045;-65
2023/09/07 02:51:35;;;;;;;7.20;4.55;;;;;;;;;;5013516;28;20073;-65
2023/09/07 02:54:03;;;;;;;8.65;5.28;;;;;;;;;;5012515;28;20121;-65
2023/09/07 02:56:29;;;;;;;6.82;4.53;;;;;;;;;;5012816;28;20054;-65
2023/09/07 02:58:55;;;;;;;8.90;4.60;;;;;;;;;;5012784;28;20159;-65
2023/09/07 03:01:22;;;;;;;7.10;4.68;;;;;;;;;;5013257;28;20125;-65
2023/09/07 03:03:48;;;;;;;6.13;4.90;;;;;;;;;;5012404;28;20046;-65
2023/09/07 03:06:16;;;;;;;7.07;4.75;;;;;;;;;;5012951;28;20041;-65
2023/09/07 03:08:43;;;;;;;7.32;5.22;;;;;;;;;;5012849;28;20042;-65
2023/09/07 03:11:09;;;;;;;6.50;4.85;;;;;;;;;;5012598;28;20045;-65
2023/09/07 03:13:35;;;;;;;7.90;5.43;;;;;;;;;;5012812;28;20080;-65
2023/09/07 03:16:02;;;;;;;5.90;5.13;;;;;;;;;;5011868;28;20069;-65
2023/09/07 03:18:28;;;;;;;7.03;4.70;;;;;;;;;;5012836;28;20096;-65
2023/09/07 03:20:56;;;;;;;8.52;5.40;;;;;;;;;;5004277;28;20038;-65
2023/09/07 03:23:23;;;;;;;5.78;5.07;;;;;;;;;;5012323;28;20038;-65
2023/09/07 03:25:49;;;;;;;9.55;5.80;;;;;;;;;;5012216;28;20057;-65
2023/09/07 03:28:15;;;;;;;7.68;5.20;;;;;;;;;;5004532;28;20042;-65
2023/09/07 03:30:41;;;;;;;6.38;5.57;;;;;;;;;;5012446;28;20049;-65
2023/09/07 03:33:07;;;;;;;7.60;4.70;;;;;;;;;;5012737;28;20080;-65
2023/09/07 03:35:33;;;;;;;7.45;5.18;;;;;;;;;;5012525;28;20065;-65
2023/09/07 03:37:59;;;;;;;9.25;5.38;;;;;;;;;;5011880;28;20122;-65
2023/09/07 03:40:26;;;;;;;6.78;5.30;;;;;;;;;;5010998;28;20539;-65
2023/09/07 03:42:52;;;;;;;7.85;4.82;;;;;;;;;;5012586;28;20038;-65
2023/09/07 03:45:18;;;;;;;11.23;5.50;;;;;;;;;;4994732;28;20196;-65
2023/09/07 03:47:44;;;;;;;6.53;5.00;;;;;;;;;;4996959;28;20048;-66
2023/09/07 03:50:10;;;;;;;5.75;4.95;;;;;;;;;;5007782;28;20041;-65
2023/09/07 03:52:36;;;;;;;6.60;4.78;;;;;;;;;;5012004;28;20067;-66
2023/09/07 03:55:03;;;;;;;5.57;4.63;;;;;;;;;;5012342;28;20033;-66
2023/09/07 03:57:29;;;;;;;5.38;4.82;;;;;;;;;;5004981;28;20699;-66
2023/09/07 03:59:56;;;;;;;5.88;4.53;;;;;;;;;;5010916;28;20117;-66
2023/09/07 04:02:22;;;;;;;7.90;4.68;;;;;;;;;;4992757;28;20125;-66
2023/09/07 04:04:57;;;;;;;5.88;5.20;;;;;;;;;;4991202;28;20038;-66
2023/09/07 04:07:24;;;;;;;6.60;4.70;;;;;;;;;;5005632;28;20046;-66
2023/09/07 04:09:50;;;;;;;7.70;4.80;;;;;;;;;;5011774;28;20052;-66
2023/09/07 04:12:16;;;;;;;7.28;4.95;;;;;;;;;;5011948;28;20062;-66
2023/09/07 04:14:42;;;;;;;5.45;4.85;;;;;;;;;;5011880;28;20069;-66
2023/09/07 04:17:08;;;;;;;6.25;4.85;;;;;;;;;;5012033;28;20036;-66
2023/09/07 04:19:34;;;;;;;7.68;4.97;;;;;;;;;;5011683;28;20125;-66
2023/09/07 04:22:01;;;;;;;6.68;4.57;;;;;;;;;;4988121;28;20084;-66
2023/09/07 04:24:30;;;;;;;9.98;5.20;;;;;;;;;;4989775;28;20492;-66
2023/09/07 04:27:00;;;;;;;7.38;4.90;;;;;;;;;;4993561;28;20042;-66
2023/09/07 04:29:26;;;;;;;7.13;4.82;;;;;;;;;;5010276;28;20044;-66
2023/09/07 04:31:52;;;;;;;6.03;5.03;;;;;;;;;;5004825;28;20046;-66
2023/09/07 04:34:18;;;;;;;7.20;5.00;;;;;;;;;;4995442;28;20043;-66
2023/09/07 04:36:44;;;;;;;8.65;5.03;;;;;;;;;;5010024;28;20073;-66
2023/09/07 04:39:10;;;;;;;8.15;5.30;;;;;;;;;;5004134;28;20048;-66
2023/09/07 04:41:36;;;;;;;6.80;4.57;;;;;;;;;;5003224;28;20400;-66
2023/09/07 04:44:02;;;;;;;7.60;5.03;;;;;;;;;;4996039;28;20046;-66
2023/09/07 04:46:28;;;;;;;6.45;5.00;;;;;;;;;;5010394;28;20060;-66
2023/09/07 04:48:54;;;;;;;5.43;4.93;;;;;;;;;;5285516;22;20023;-68
2023/09/07 04:51:21;;;;;;;8.55;5.40;;;;;;;;;;5004555;28;20077;-68
2023/09/07 04:53:47;;;;;;;5.82;5.15;;;;;;;;;;5012261;28;20050;-69
2023/09/07 04:56:13;;;;;;;6.47;5.20;;;;;;;;;;5015151;28;20097;-69
2023/09/07 04:58:39;;;;;;;5.82;5.18;;;;;;;;;;5007705;28;20507;-69
2023/09/07 05:01:06;;;;;;;5.70;5.07;;;;;;;;;;5001537;28;20081;-69
2023/09/07 05:03:33;;;;;;;7.25;5.30;;;;;;;;;;4994153;28;20064;-69
2023/09/07 05:06:00;;;;;;;6.20;4.88;;;;;;;;;;5012206;28;20049;-69
2023/09/07 05:08:26;;;;;;;7.55;5.75;;;;;;;;;;5015548;28;20046;-69
2023/09/07 05:10:59;;;;;;;8.27;5.80;;;;;;;;;;4994638;28;20052;-69
2023/09/07 05:13:25;;;;;;;7.88;5.63;;;;;;;;;;5001393;28;20046;-69
2023/09/07 05:15:51;;;;;;;6.10;5.00;;;;;;;;;;5013532;28;20407;-69
2023/09/07 05:18:18;;;;;;;6.55;5.35;;;;;;;;;;5014533;28;20038;-69
2023/09/07 05:20:44;;;;;;;7.00;5.22;;;;;;;;;;5010843;28;20148;-69
2023/09/07 05:23:12;;;;;;;6.97;5.30;;;;;;;;;;5015134;28;20065;-69
2023/09/07 05:25:44;;;;;;;10.80;6.00;;;;;;;;;;4997622;28;20038;-69
2023/09/07 05:28:10;;;;;;;7.78;5.20;;;;;;;;;;4999421;28;20045;-69
2023/09/07 05:30:36;;;;;;;7.50;5.30;;;;;;;;;;4994621;28;20045;-69
2023/09/07 05:33:02;;;;;;;7.65;5.93;;;;;;;;;;5005979;28;20429;-69
2023/09/07 05:35:32;;;;;;;8.68;5.40;;;;;;;;;;5014117;28;20129;-69
2023/09/07 05:37:58;;;;;;;7.57;5.78;;;;;;;;;;5001414;28;20053;-69
2023/09/07 05:40:24;;;;;;;7.00;5.50;;;;;;;;;;5003275;28;20108;-69
2023/09/07 05:42:50;;;;;;;5.80;4.70;;;;;;;;;;4994587;28;20444;-69
2023/09/07 05:45:16;;;;;;;6.15;4.80;;;;;;;;;;4998117;28;20042;-69
2023/09/07 05:47:42;;;;;;;7.72;5.35;;;;;;;;;;4998517;28;20043;-69
2023/09/07 05:50:08;;;;;;;9.07;5.38;;;;;;;;;;5006168;28;20121;-69
2023/09/07 05:52:34;;;;;;;8.52;5.63;;;;;;;;;;4999312;28;20036;-69
2023/09/07 05:55:00;;;;;;;8.30;6.15;;;;;;;;;;4994349;28;20549;-69
2023/09/07 05:57:26;;;;;;;8.50;5.70;;;;;;;;;;5008420;28;20116;-69
2023/09/07 05:59:52;;;;;;;9.48;5.55;;;;;;;;;;4996278;28;20100;-69
2023/09/07 06:02:18;;;;;;;7.18;5.60;;;;;;;;;;4994719;28;20038;-69
2023/09/07 06:04:44;;;;;;;8.55;5.90;;;;;;;;;;5010641;28;20470;-69
2023/09/07 06:07:10;;;;;;;7.35;5.70;;;;;;;;;;4986051;28;20050;-69
2023/09/07 06:09:36;;;;;;;8.82;6.10;;;;;;;;;;4993791;28;20104;-69
2023/09/07 06:12:03;;;;;;;11.02;6.10;;;;;;;;;;5004944;28;20050;-69
2023/09/07 06:14:29;;;;;;;9.02;6.38;;;;;;;;;;4995533;28;20053;-69
2023/09/07 06:16:55;;;;;;;7.65;5.35;;;;;;;;;;4985907;28;20397;-69
2023/09/07 06:19:21;;;;;;;12.57;6.90;;;;;;;;;;4989026;28;20050;-69
2023/09/07 06:21:47;;;;;;;7.53;6.20;;;;;;;;;;4990577;28;20039;-69
2023/09/07 06:24:14;;;;;;;10.10;6.78;;;;;;;;;;4995116;28;20041;-69
2023/09/07 06:26:40;;;;;;;9.70;6.53;;;;;;;;;;5005491;28;20046;-69
2023/09/07 06:29:06;;;;;;;7.43;6.40;;;;;;;;;;5001248;28;20128;-69
2023/09/07 06:31:32;;;;;;;7.80;6.75;;;;;;;;;;5013485;28;20126;-69
2023/09/07 06:33:58;;;;;;;9.82;6.93;;;;;;;;;;5002634;28;20399;-69
2023/09/07 06:36:24;;;;;;;8.32;6.57;;;;;;;;;;4985587;28;20039;-69
2023/09/07 06:38:50;;;;;;;8.05;6.30;;;;;;;;;;4999921;28;20050;-69
2023/09/07 06:41:16;;;;;;;10.15;7.55;;;;;;;;;;4979536;28;20049;-69
2023/09/07 06:43:42;;;;;;;10.30;7.30;;;;;;;;;;4967894;28;20389;-69
2023/09/07 06:46:08;;;;;;;9.52;6.90;;;;;;;;;;4966838;28;20094;-69
2023/09/07 06:48:35;;;;;;;7.95;6.60;;;;;;;;;;4968410;28;20046;-69
2023/09/07 06:51:08;;;;;;;10.75;7.00;;;;;;;;;;4980705;28;20038;-69
2023/09/07 06:53:34;;;;;;;10.63;6.93;;;;;;;;;;4990251;28;20042;-68
2023/09/07 06:56:03;;;;;;;9.85;6.90;;;;;;;;;;4989049;28;20084;-68
2023/09/07 06:58:29;;;;;;;9.95;6.43;;;;;;;;;;4984999;28;20117;-69
2023/09/07 07:00:59;;;;;;;8.35;6.85;;;;;;;;;;4985730;28;20081;-69
2023/09/07 07:03:27;;;;;;;8.90;6.60;;;;;;;;;;4999387;28;20038;-68
2023/09/07 07:05:52;;;;;;;10.45;6.80;;;;;;;;;;4992468;28;20038;-68
2023/09/07 07:08:19;;;;;;;7.85;6.35;;;;;;;;;;4989376;28;20092;-69
2023/09/07 07:10:45;;;;;;;9.18;6.32;;;;;;;;;;4990129;28;20173;-68
2023/09/07 07:13:11;;;;;;;12.27;7.05;;;;;;;;;;5004881;28;20064;-69
2023/09/07 07:15:37;;;;;;;9.85;6.22;;;;;;;;;;4992520;28;20077;-69
2023/09/07 07:18:08;;;;;;;9.82;6.28;;;;;;;;;;4992719;28;20039;-69
2023/09/07 07:20:35;;;;;;;7.22;6.22;;;;;;;;;;4987355;28;20050;-69
2023/09/07 07:23:01;;;;;;;8.00;5.72;;;;;;;;;;4990414;28;20070;-69
2023/09/07 07:25:27;;;;;;;8.98;6.15;;;;;;;;;;4981157;28;20050;-69
2023/09/07 07:27:53;;;;;;;11.30;5.93;;;;;;;;;;5000564;28;20077;-69
2023/09/07 07:30:19;;;;;;;12.15;5.75;;;;;;;;;;5007544;28;20081;-69
2023/09/07 07:32:45;;;;;;;7.00;5.65;;;;;;;;;;4996237;28;20102;-69
2023/09/07 07:35:11;;;;;;;7.55;5.53;;;;;;;;;;5009141;28;20038;-69
2023/09/07 07:37:38;;;;;;;7.93;5.68;;;;;;;;;;4992303;28;20038;-69
2023/09/07 07:40:04;;;;;;;8.32;5.60;;;;;;;;;;4994683;28;20058;-69
2023/09/07 07:42:30;;;;;;;7.05;5.50;;;;;;;;;;5012265;28;20038;-69
2023/09/07 07:44:56;;;;;;;6.88;5.55;;;;;;;;;;5000176;28;20481;-69
2023/09/07 07:47:22;;;;;;;9.30;5.38;;;;;;;;;;4995190;28;20049;-68
2023/09/07 07:49:48;;;;;;;7.78;5.78;;;;;;;;;;4989845;28;20053;-69
2023/09/07 07:52:14;;;;;;;8.10;5.53;;;;;;;;;;4991869;28;20042;-71
2023/09/07 07:54:40;;;;;;;7.28;4.97;;;;;;;;;;4990054;28;20399;-71
2023/09/07 07:57:06;;;;;;;7.88;4.78;;;;;;;;;;4992963;28;20048;-71
2023/09/07 07:59:34;;;;;;;5.90;4.90;;;;;;;;;;4993281;28;20385;-71
2023/09/07 08:02:00;;;;;;;7.97;5.13;;;;;;;;;;4990164;28;20423;-71
2023/09/07 08:04:27;;;;;;;7.55;4.90;;;;;;;;;;4982290;28;20042;-71
2023/09/07 08:06:58;;;;;;;6.13;5.07;;;;;;;;;;4971348;28;20070;-71
2023/09/07 08:09:23;;;;;;;;;;;;;;;;;;4989403;28;20049;-71
2023/09/07 08:11:51;;;;;;;6.85;4.97;;;;;;;;;;4991946;28;20001;-71
2023/09/07 08:14:17;;;;;;;7.63;4.90;;;;;;;;;;5001112;28;20445;-71
2023/09/07 08:16:43;;;;;;;7.25;4.82;;;;;;;;;;4997216;28;20089;-71
2023/09/07 08:19:09;;;;;;;7.65;4.80;;;;;;;;;;4990249;28;20047;-71
2023/09/07 08:21:35;;;;;;;8.75;5.00;;;;;;;;;;4998472;28;20045;-71
2023/09/07 08:24:02;;;;;;;6.60;5.25;;;;;;;;;;4999652;28;20061;-71
2023/09/07 08:26:28;;;;;;;7.28;4.43;;;;;;;;;;5005285;28;20042;-71
2023/09/07 08:28:54;;;;;;;5.68;4.35;;;;;;;;;;4995068;28;20566;-71
2023/09/07 08:31:22;;;;;;;5.88;4.78;;;;;;;;;;5003717;28;20041;-71
2023/09/07 08:33:50;;;;;;;6.95;4.53;;;;;;;;;;5002233;28;20045;-71
2023/09/07 08:36:22;;;;;;;7.95;4.93;;;;;;;;;;4978219;28;20035;-71
2023/09/07 08:38:48;;;;;;;8.07;4.70;;;;;;;;;;4991807;28;20057;-71
2023/09/07 08:41:14;;;;;;;7.20;4.43;;;;;;;;;;4996815;28;20133;-71
2023/09/07 08:43:48;;;;;;;5.95;4.85;;;;;;;;;;5005623;28;20038;-71
2023/09/07 08:46:15;;;;;;;5.63;4.30;;;;;;;;;;5008743;28;20053;-71
2023/09/07 08:48:42;;;;;;;6.22;4.40;;;;;;;;;;5011715;28;20208;-71
2023/09/07 08:51:11;;;;;;;6.30;4.68;;;;;;;;;;5006632;28;20172;-72
2023/09/07 08:53:37;;;;;;;7.88;4.90;;;;;;;;;;4998972;28;20101;-72
2023/09/07 08:56:04;;;;;;;8.00;4.75;;;;;;;;;;4999781;28;20050;-72
2023/09/07 08:58:31;;;;;;;6.10;4.80;;;;;;;;;;5006173;28;20409;-71
2023/09/07 09:00:57;;;;;;;6.18;3.92;;;;;;;;;;4991396;28;20062;-71
2023/09/07 09:03:24;;;;;;;6.97;5.03;;;;;;;;;;5009219;28;20131;-72
2023/09/07 09:05:51;;;;;;;8.70;4.32;;;;;;;;;;4982307;28;20078;-73
2023/09/07 09:08:24;;;;;;;6.72;4.20;;;;;;;;;;4982401;28;20634;-73
2023/09/07 09:10:50;;;;;;;8.38;4.55;;;;;;;;;;4986028;28;20098;-73
2023/09/07 09:13:16;;;;;;;7.13;4.30;;;;;;;;;;4987676;28;20099;-72
2023/09/07 09:15:42;;;;;;;5.40;4.22;;;;;;;;;;4987771;28;20129;-72
2023/09/07 09:18:12;;;;;;;6.35;4.13;;;;;;;;;;5004409;28;20049;-72
2023/09/07 09:20:39;;;;;;;6.55;4.72;;;;;;;;;;5007997;28;20046;-72
2023/09/07 09:23:07;;;;;;;6.13;4.22;;;;;;;;;;4984689;28;20034;-72
2023/09/07 09:25:33;;;;;;;8.63;4.20;;;;;;;;;;5003115;28;20046;-72
2023/09/07 09:27:58;;;;;;;5.82;3.90;;;;;;;;;;5014256;28;20454;-72
2023/09/07 09:30:25;;;;;;;5.50;4.30;;;;;;;;;;4993901;28;20046;-72
2023/09/07 09:32:51;;;;;;;8.45;4.28;;;;;;;;;;5001704;28;20045;-72
2023/09/07 09:35:18;;;;;;;6.18;4.00;;;;;;;;;;4993161;28;20065;-72
2023/09/07 09:37:48;;;;;;;6.45;4.10;;;;;;;;;;4991349;28;20085;-72
2023/09/07 09:40:14;;;;;;;5.63;3.92;;;;;;;;;;5001962;28;20100;-72
2023/09/07 09:42:44;;;;;;;5.90;3.72;;;;;;;;;;4976086;28;20045;-72
2023/09/07 09:45:11;;;;;;;6.00;3.88;;;;;;;;;;5000934;28;20132;-72
2023/09/07 09:47:40;;;;;;;6.18;4.10;;;;;;;;;;5000901;28;20049;-72
2023/09/07 09:50:07;;;;;;;6.80;4.45;;;;;;;;;;5002806;28;20061;-72
2023/09/07 09:52:34;;;;;;;5.07;4.25;;;;;;;;;;5008443;28;20069;-72
2023/09/07 09:55:01;;;;;;;5.10;4.28;;;;;;;;;;5013506;28;20066;-72
2023/09/07 09:57:28;;;;;;;5.72;4.30;;;;;;;;;;5003264;28;20043;-72
2023/09/07 09:59:55;;;;;;;7.43;4.28;;;;;;;;;;5008994;28;20487;-72
2023/09/07 10:02:21;;;;;;;9.50;4.63;;;;;;;;;;5000683;28;20081;-72
2023/09/07 10:04:48;;;;;;;9.23;4.03;;;;;;;;;;4994628;28;20049;-72
2023/09/07 10:07:14;;;;;;;5.78;3.95;;;;;;;;;;4989960;28;20038;-72
2023/09/07 10:09:40;;;;;;;5.90;3.90;;;;;;;;;;4981263;28;20046;-72
2023/09/07 10:12:11;;;;;;;7.25;4.35;;;;;;;;;;5012093;28;20500;-73
2023/09/07 10:14:41;;;;;;;8.65;4.05;;;;;;;;;;5013224;28;20050;-73
2023/09/07 10:17:09;;;;;;;4.90;3.70;;;;;;;;;;5006541;28;20041;-73
2023/09/07 10:19:38;;;;;;;6.45;4.28;;;;;;;;;;4993934;28;20574;-73
2023/09/07 10:22:04;;;;;;;5.30;3.92;;;;;;;;;;5005598;28;20049;-73
2023/09/07 10:24:33;;;;;;;4.93;3.53;;;;;;;;;;5010066;28;20196;-73
2023/09/07 10:27:02;;;;;;;9.27;4.00;;;;;;;;;;5005283;28;20109;-73
2023/09/07 10:29:28;;;;;;;4.68;4.05;;;;;;;;;;4992902;28;20048;-73
2023/09/07 10:31:54;;;;;;;7.93;3.97;;;;;;;;;;5010508;28;20041;-73
2023/09/07 10:34:22;;;;;;;4.82;3.95;;;;;;;;;;5002221;28;20042;-73
2023/09/07 10:36:51;;;;;;;4.72;3.80;;;;;;;;;;5000542;28;20077;-73
2023/09/07 10:39:17;;;;;;;7.68;4.30;;;;;;;;;;5013563;28;20034;-73
2023/09/07 10:41:43;;;;;;;6.57;4.47;;;;;;;;;;5013821;28;20418;-73
2023/09/07 10:44:13;;;;;;;5.22;3.75;;;;;;;;;;4998668;28;20496;-73
2023/09/07 10:46:40;;;;;;;5.97;4.45;;;;;;;;;;4999939;28;20047;-73
2023/09/07 10:49:11;;;;;;;5.35;3.88;;;;;;;;;;5023932;22;20041;-73
2023/09/07 10:51:44;;;;;;;5.65;3.95;;;;;;;;;;5016663;28;20045;-73
2023/09/07 10:54:24;;;;;;;5.63;4.07;;;;;;;;;;5017867;28;20038;-73
2023/09/07 10:56:50;;;;;;;5.03;4.00;;;;;;;;;;5016988;28;20048;-73
2023/09/07 10:59:17;;;;;;;7.20;4.10;;;;;;;;;;5011052;28;20037;-73
2023/09/07 11:01:48;;;;;;;5.68;4.10;;;;;;;;;;5018993;28;20079;-72
2023/09/07 11:04:14;;;;;;;8.30;4.80;;;;;;;;;;5032715;28;20046;-72
2023/09/07 11:06:41;;;;;;;5.97;4.03;;;;;;;;;;5028357;28;20510;-72
2023/09/07 11:09:10;;;;;;;6.35;3.85;;;;;;;;;;5009346;28;20085;-72
2023/09/07 11:11:36;;;;;;;4.55;3.88;;;;;;;;;;5018391;28;20495;-72
2023/09/07 11:14:03;;;;;;;6.20;3.78;;;;;;;;;;5032383;28;20045;-72
2023/09/07 11:16:30;;;;;;;5.28;3.90;;;;;;;;;;5027194;28;20054;-72
2023/09/07 11:18:56;;;;;;;5.75;3.42;;;;;;;;;;5011664;28;20046;-72
2023/09/07 11:21:22;;;;;;;7.10;4.05;;;;;;;;;;5016603;28;20045;-72
2023/09/07 11:23:49;;;;;;;6.50;4.13;;;;;;;;;;5028767;28;20134;-72
2023/09/07 11:26:17;;;;;;;6.78;4.03;;;;;;;;;;5029111;28;20121;-72
2023/09/07 11:28:45;;;;;;;5.65;4.20;;;;;;;;;;5009757;28;20045;-72
2023/09/07 11:31:11;;;;;;;6.20;4.43;;;;;;;;;;5007228;28;20092;-73
2023/09/07 11:33:38;;;;;;;4.70;3.80;;;;;;;;;;5012051;28;20069;-73
2023/09/07 11:36:04;;;;;;;5.80;4.00;;;;;;;;;;5029193;28;20052;-73
2023/09/07 11:38:35;;;;;;;6.78;4.07;;;;;;;;;;5031708;28;20041;-73
2023/09/07 11:41:02;;;;;;;7.72;3.80;;;;;;;;;;5025189;28;20042;-73
2023/09/07 11:43:28;;;;;;;5.80;4.28;;;;;;;;;;5005230;28;20041;-72
2023/09/07 11:45:54;;;;;;;5.78;4.10;;;;;;;;;;5026769;28;20471;-72
2023/09/07 11:48:20;;;;;;;6.75;4.00;;;;;;;;;;5031862;28;20353;-72
2023/09/07 11:50:46;;;;;;;4.28;3.85;;;;;;;;;;5002720;28;20125;-72
2023/09/07 11:53:12;;;;;;;5.43;3.58;;;;;;;;;;5011215;28;20053;-72
2023/09/07 11:55:40;;;;;;;5.72;4.00;;;;;;;;;;5017647;28;20037;-72
2023/09/07 11:58:06;;;;;;;7.53;3.60;;;;;;;;;;5031731;28;20088;-72
2023/09/07 12:00:33;;;;;;;6.25;3.88;;;;;;;;;;5015483;28;20061;-72
2023/09/07 12:02:59;;;;;;;4.93;4.00;;;;;;;;;;5020620;28;20037;-72
2023/09/07 12:05:25;;;;;;;7.32;3.95;;;;;;;;;;5031647;28;20116;-72
2023/09/07 12:07:51;;;;;;;5.25;3.15;;;;;;;;;;5023502;28;20041;-72
2023/09/07 12:10:17;;;;;;;8.23;3.70;;;;;;;;;;4999511;28;20033;-72
2023/09/07 12:12:44;;;;;;;3.88;3.30;;;;;;;;;;5011974;28;20033;-72
2023/09/07 12:15:13;;;;;;;6.80;3.80;;;;;;;;;;5030208;28;20399;-72
2023/09/07 12:17:39;;;;;;;5.37;4.10;;;;;;;;;;5030199;28;20049;-72
2023/09/07 12:20:09;;;;;;;4.90;4.10;;;;;;;;;;5019379;28;20049;-72
2023/09/07 12:22:37;;;;;;;4.90;3.80;;;;;;;;;;5015765;28;20045;-72
2023/09/07 12:25:03;;;;;;;5.85;3.72;;;;;;;;;;5028234;28;20038;-72
2023/09/07 12:27:29;;;;;;;6.50;3.47;;;;;;;;;;5022779;28;20048;-72
2023/09/07 12:29:55;;;;;;;4.60;3.85;;;;;;;;;;5031882;28;20049;-73
2023/09/07 12:32:21;;;;;;;5.07;3.80;;;;;;;;;;5028109;28;20069;-72
2023/09/07 12:34:47;;;;;;;4.63;4.03;;;;;;;;;;5023220;28;20048;-72
2023/09/07 12:37:13;;;;;;;6.55;3.58;;;;;;;;;;5013371;28;20639;-72
2023/09/07 12:39:39;;;;;;;6.63;3.90;;;;;;;;;;5030819;28;20053;-72
2023/09/07 12:42:05;;;;;;;6.43;3.70;;;;;;;;;;5030555;28;20108;-72
2023/09/07 12:44:32;;;;;;;7.05;3.50;;;;;;;;;;5011293;28;20033;-72
2023/09/07 12:46:58;;;;;;;5.03;3.58;;;;;;;;;;5011616;28;20045;-72
2023/09/07 12:49:24;;;;;;;4.88;3.80;;;;;;;;;;5026746;28;20045;-71
2023/09/07 12:51:50;;;;;;;5.40;3.85;;;;;;;;;;5035396;28;20053;-71
2023/09/07 12:54:16;;;;;;;5.75;3.75;;;;;;;;;;5009614;28;20034;-71
2023/09/07 12:56:42;;;;;;;5.18;3.50;;;;;;;;;;5014401;28;20561;-71
2023/09/07 12:59:08;;;;;;;4.50;3.42;;;;;;;;;;5024582;28;20491;-71
2023/09/07 13:01:34;;;;;;;6.25;3.60;;;;;;;;;;5035434;28;20047;-72
2023/09/07 13:04:00;;;;;;;4.47;3.67;;;;;;;;;;5016391;28;20083;-72
2023/09/07 13:06:26;;;;;;;4.47;3.50;;;;;;;;;;5018291;28;20045;-72
2023/09/07 13:08:52;;;;;;;4.05;3.10;;;;;;;;;;5034658;28;20053;-71
2023/09/07 13:11:18;;;;;;;6.80;3.67;;;;;;;;;;5035099;28;20041;-72
2023/09/07 13:13:44;;;;;;;9.73;3.72;;;;;;;;;;5018539;28;20050;-73
2023/09/07 13:16:11;;;;;;;3.78;3.10;;;;;;;;;;5016123;28;20119;-72
2023/09/07 13:18:38;;;;;;;4.78;3.40;;;;;;;;;;5034735;28;20049;-72
2023/09/07 13:21:04;;;;;;;3.97;3.58;;;;;;;;;;5034345;28;20675;-72
2023/09/07 13:23:31;;;;;;;4.38;3.53;;;;;;;;;;5022212;28;20048;-72
2023/09/07 13:25:57;;;;;;;8.43;3.30;;;;;;;;;;5014517;28;20093;-72
2023/09/07 13:28:23;;;;;;;4.93;3.30;;;;;;;;;;5034540;28;20380;-72
2023/09/07 13:30:50;;;;;;;6.22;3.53;;;;;;;;;;5025791;28;20063;-72
2023/09/07 13:33:16;;;;;;;5.57;3.25;;;;;;;;;;5023068;28;20037;-72
2023/09/07 13:35:43;;;;;;;5.40;3.47;;;;;;;;;;5006838;28;20041;-72
2023/09/07 13:38:09;;;;;;;3.97;3.33;;;;;;;;;;5023305;28;20050;-72
2023/09/07 13:40:35;;;;;;;4.90;3.35;;;;;;;;;;5034316;28;20091;-73
2023/09/07 13:43:01;;;;;;;6.55;3.95;;;;;;;;;;5026846;28;20037;-73
2023/09/07 13:45:29;;;;;;;4.68;3.42;;;;;;;;;;5022106;28;20033;-72
2023/09/07 13:47:55;;;;;;;4.82;3.40;;;;;;;;;;5028259;28;20558;-71
2023/09/07 13:50:21;;;;;;;4.28;3.47;;;;;;;;;;5033435;28;20041;-72
2023/09/07 13:52:47;;;;;;;5.00;3.22;;;;;;;;;;5017494;28;20169;-72
2023/09/07 13:55:13;;;;;;;5.65;3.20;;;;;;;;;;5015226;28;20504;-72
2023/09/07 13:57:39;;;;;;;5.38;3.60;;;;;;;;;;5017936;28;20100;-72
2023/09/07 14:00:05;;;;;;;4.22;3.40;;;;;;;;;;5013221;28;20420;-73
2023/09/07 14:02:32;;;;;;;6.40;3.42;;;;;;;;;;5026881;28;20026;-72
2023/09/07 14:04:58;;;;;;;4.97;3.70;;;;;;;;;;5025017;28;20407;-72
2023/09/07 14:07:25;;;;;;;4.38;3.63;;;;;;;;;;5015604;28;20119;-72
2023/09/07 14:09:52;;;;;;;8.60;3.70;;;;;;;;;;5014269;28;20440;-72
2023/09/07 14:12:18;;;;;;;4.88;3.60;;;;;;;;;;5022078;28;20120;-73
2023/09/07 14:14:44;;;;;;;3.78;3.03;;;;;;;;;;5027677;28;20065;-73
2023/09/07 14:17:10;;;;;;;3.80;3.38;;;;;;;;;;5028463;28;20045;-73
2023/09/07 14:19:36;;;;;;;3.83;3.40;;;;;;;;;;5012690;28;20052;-73
2023/09/07 14:22:02;;;;;;;5.47;3.47;;;;;;;;;;5012450;28;20466;-72
2023/09/07 14:24:28;;;;;;;5.63;3.30;;;;;;;;;;5025434;28;20112;-73
2023/09/07 14:26:53;;;;;;;4.00;3.60;;;;;;;;;;5030109;28;20611;-73
2023/09/07 14:29:20;;;;;;;4.78;3.40;;;;;;;;;;5011775;28;20120;-73
2023/09/07 14:31:46;;;;;;;5.00;3.30;;;;;;;;;;5012698;28;20542;-73
2023/09/07 14:34:12;;;;;;;5.70;3.60;;;;;;;;;;5023451;28;20117;-73
2023/09/07 14:36:39;;;;;;;3.63;3.20;;;;;;;;;;5010185;28;20053;-73
2023/09/07 14:39:06;;;;;;;5.60;4.10;;;;;;;;;;5010208;28;20443;-73